Terminal Aerodrome Forecast
Issued by NWS

Home | Current Version | Previous Version | Text Only | Print | Product List | Glossary On
Versions: 1 2 3 4 5 6 7 8 9 10 11 12 13 14 15 16
000
FTUS45 KREV 181126
TAFTVL
TAF
KTVL 181126Z 1812/1912 20006KT P6SM BKN035 OVC070 WS020/24035KT
     FM181500 19011KT P6SM VCSH SCT030 OVC070 WS020/23040KT
     FM181900 20015G25KT P6SM VCSH BKN040 OVC070 WS015/23040KT
     FM182300 19020G32KT 5SM -RASN BKN035 OVC050
     FM190300 19018G26KT 4SM -SN OVC010
     FM190700 20013G20KT 1SM -SN OVC006=

USA.gov is the U.S. government's official web portal to all federal, state and local government web resources and services.